sensor_id;sensor_type;location;lat;lon;timestamp;temperature;humidity
75442;DHT22;64019;48.312;14.226;2023-02-20T00:00:51;8.60;99.90
75442;DHT22;64019;48.312;14.226;2023-02-20T00:03:17;8.60;99.90
75442;DHT22;64019;48.312;14.226;2023-02-20T00:05:43;8.50;99.90
75442;DHT22;64019;48.312;14.226;2023-02-20T00:08:08;8.60;99.90
75442;DHT22;64019;48.312;14.226;2023-02-20T00:10:34;8.60;99.90
75442;DHT22;64019;48.312;14.226;2023-02-20T00:13:00;8.50;99.90
75442;DHT22;64019;48.312;14.226;2023-02-20T00:15:25;8.60;99.90
75442;DHT22;64019;48.312;14.226;2023-02-20T00:17:51;8.50;99.90
75442;DHT22;64019;48.312;14.226;2023-02-20T00:20:22;8.50;99.90
75442;DHT22;64019;48.312;14.226;2023-02-20T00:22:48;8.50;99.90
75442;DHT22;64019;48.312;14.226;2023-02-20T00:25:16;8.50;99.90
75442;DHT22;64019;48.312;14.226;2023-02-20T00:27:42;8.50;99.90
75442;DHT22;64019;48.312;14.226;2023-02-20T00:30:14;8.50;99.90
75442;DHT22;64019;48.312;14.226;2023-02-20T00:32:40;8.50;99.90
75442;DHT22;64019;48.312;14.226;2023-02-20T00:35:05;8.50;99.90
75442;DHT22;64019;48.312;14.226;2023-02-20T00:37:31;8.50;99.90
75442;DHT22;64019;48.312;14.226;2023-02-20T00:39:57;8.50;99.90
75442;DHT22;64019;48.312;14.226;2023-02-20T00:42:22;8.60;99.90
75442;DHT22;64019;48.312;14.226;2023-02-20T00:44:48;8.50;99.90
75442;DHT22;64019;48.312;14.226;2023-02-20T00:47:14;8.50;99.90
75442;DHT22;64019;48.312;14.226;2023-02-20T00:49:39;8.50;99.90
75442;DHT22;64019;48.312;14.226;2023-02-20T00:52:05;8.50;99.90
75442;DHT22;64019;48.312;14.226;2023-02-20T00:54:30;8.50;99.90
75442;DHT22;64019;48.312;14.226;2023-02-20T00:56:56;8.40;99.90
75442;DHT22;64019;48.312;14.226;2023-02-20T00:59:21;8.40;99.90
75442;DHT22;64019;48.312;14.226;2023-02-20T01:01:47;8.50;99.90
75442;DHT22;64019;48.312;14.226;2023-02-20T01:04:13;8.50;99.90
75442;DHT22;64019;48.312;14.226;2023-02-20T01:06:38;8.50;99.90
75442;DHT22;64019;48.312;14.226;2023-02-20T01:09:04;8.50;99.90
75442;DHT22;64019;48.312;14.226;2023-02-20T01:11:30;8.50;99.90
75442;DHT22;64019;48.312;14.226;2023-02-20T01:13:55;8.50;99.90
75442;DHT22;64019;48.312;14.226;2023-02-20T01:16:21;8.50;99.90
75442;DHT22;64019;48.312;14.226;2023-02-20T01:18:50;8.50;99.90
75442;DHT22;64019;48.312;14.226;2023-02-20T01:21:16;8.50;99.90
75442;DHT22;64019;48.312;14.226;2023-02-20T01:23:42;8.50;99.90
75442;DHT22;64019;48.312;14.226;2023-02-20T01:26:08;8.50;99.90
75442;DHT22;64019;48.312;14.226;2023-02-20T01:28:33;8.50;99.90
75442;DHT22;64019;48.312;14.226;2023-02-20T01:30:59;8.50;99.90
75442;DHT22;64019;48.312;14.226;2023-02-20T01:33:25;8.50;99.90
75442;DHT22;64019;48.312;14.226;2023-02-20T01:35:51;8.50;99.90
75442;DHT22;64019;48.312;14.226;2023-02-20T01:38:16;8.50;99.90
75442;DHT22;64019;48.312;14.226;2023-02-20T01:40:46;8.50;99.90
75442;DHT22;64019;48.312;14.226;2023-02-20T01:43:13;8.50;99.90
75442;DHT22;64019;48.312;14.226;2023-02-20T01:45:39;8.50;99.90
75442;DHT22;64019;48.312;14.226;2023-02-20T01:48:05;8.50;99.90
75442;DHT22;64019;48.312;14.226;2023-02-20T01:50:41;8.60;99.90
75442;DHT22;64019;48.312;14.226;2023-02-20T01:53:11;8.50;99.90
75442;DHT22;64019;48.312;14.226;2023-02-20T01:55:44;8.50;99.90
75442;DHT22;64019;48.312;14.226;2023-02-20T01:58:16;8.50;99.90
75442;DHT22;64019;48.312;14.226;2023-02-20T02:00:44;8.50;99.90
75442;DHT22;64019;48.312;14.226;2023-02-20T02:03:12;8.50;99.90
75442;DHT22;64019;48.312;14.226;2023-02-20T02:05:40;8.60;99.90
75442;DHT22;64019;48.312;14.226;2023-02-20T02:08:09;8.60;99.90
75442;DHT22;64019;48.312;14.226;2023-02-20T02:10:44;8.60;99.90
75442;DHT22;64019;48.312;14.226;2023-02-20T02:13:11;8.60;99.90
75442;DHT22;64019;48.312;14.226;2023-02-20T02:15:37;8.60;99.90
75442;DHT22;64019;48.312;14.226;2023-02-20T02:26:18;8.60;99.90
75442;DHT22;64019;48.312;14.226;2023-02-20T02:29:16;8.60;99.90
75442;DHT22;64019;48.312;14.226;2023-02-20T02:32:09;8.70;99.90
75442;DHT22;64019;48.312;14.226;2023-02-20T02:37:39;8.70;99.90
75442;DHT22;64019;48.312;14.226;2023-02-20T02:48:22;8.70;99.90
75442;DHT22;64019;48.312;14.226;2023-02-20T02:50:52;8.70;99.90
75442;DHT22;64019;48.312;14.226;2023-02-20T02:53:19;8.70;99.90
75442;DHT22;64019;48.312;14.226;2023-02-20T02:55:44;8.70;99.90
75442;DHT22;64019;48.312;14.226;2023-02-20T02:58:12;8.70;99.90
75442;DHT22;64019;48.312;14.226;2023-02-20T03:00:42;8.70;99.90
75442;DHT22;64019;48.312;14.226;2023-02-20T03:05:51;8.70;99.90
75442;DHT22;64019;48.312;14.226;2023-02-20T03:08:38;8.70;99.90
75442;DHT22;64019;48.312;14.226;2023-02-20T03:11:07;8.70;99.90
75442;DHT22;64019;48.312;14.226;2023-02-20T03:13:45;8.70;99.90
75442;DHT22;64019;48.312;14.226;2023-02-20T03:19:30;8.70;99.90
75442;DHT22;64019;48.312;14.226;2023-02-20T03:21:57;8.70;99.90
75442;DHT22;64019;48.312;14.226;2023-02-20T03:24:25;8.70;99.90
75442;DHT22;64019;48.312;14.226;2023-02-20T03:26:53;8.70;99.90
75442;DHT22;64019;48.312;14.226;2023-02-20T03:29:26;8.70;99.90
75442;DHT22;64019;48.312;14.226;2023-02-20T03:31:59;8.70;99.90
75442;DHT22;64019;48.312;14.226;2023-02-20T03:34:45;8.70;99.90
75442;DHT22;64019;48.312;14.226;2023-02-20T03:37:34;8.70;99.90
75442;DHT22;64019;48.312;14.226;2023-02-20T03:40:21;8.70;99.90
75442;DHT22;64019;48.312;14.226;2023-02-20T03:43:10;8.70;99.90
75442;DHT22;64019;48.312;14.226;2023-02-20T03:45:59;8.70;99.90
75442;DHT22;64019;48.312;14.226;2023-02-20T03:48:48;8.70;99.90
75442;DHT22;64019;48.312;14.226;2023-02-20T03:51:14;8.70;99.90
75442;DHT22;64019;48.312;14.226;2023-02-20T03:53:42;8.70;99.90
75442;DHT22;64019;48.312;14.226;2023-02-20T03:56:15;8.70;99.90
75442;DHT22;64019;48.312;14.226;2023-02-20T03:58:46;8.70;99.90
75442;DHT22;64019;48.312;14.226;2023-02-20T04:01:15;8.70;99.90
75442;DHT22;64019;48.312;14.226;2023-02-20T04:03:45;8.70;99.90
75442;DHT22;64019;48.312;14.226;2023-02-20T04:06:13;8.70;99.90
75442;DHT22;64019;48.312;14.226;2023-02-20T04:09:01;8.70;99.90
75442;DHT22;64019;48.312;14.226;2023-02-20T04:11:46;8.60;99.90
75442;DHT22;64019;48.312;14.226;2023-02-20T04:14:14;8.70;99.90
75442;DHT22;64019;48.312;14.226;2023-02-20T04:16:54;8.70;99.90
75442;DHT22;64019;48.312;14.226;2023-02-20T04:19:20;8.70;99.90
75442;DHT22;64019;48.312;14.226;2023-02-20T04:21:51;8.70;99.90
75442;DHT22;64019;48.312;14.226;2023-02-20T04:24:35;8.70;99.90
75442;DHT22;64019;48.312;14.226;2023-02-20T04:27:05;8.60;99.90
75442;DHT22;64019;48.312;14.226;2023-02-20T04:29:31;8.70;99.90
75442;DHT22;64019;48.312;14.226;2023-02-20T04:31:56;8.60;99.90
75442;DHT22;64019;48.312;14.226;2023-02-20T04:34:22;8.60;99.90
75442;DHT22;64019;48.312;14.226;2023-02-20T04:36:48;8.60;99.90
75442;DHT22;64019;48.312;14.226;2023-02-20T04:39:14;8.70;99.90
75442;DHT22;64019;48.312;14.226;2023-02-20T04:41:40;8.70;99.90
75442;DHT22;64019;48.312;14.226;2023-02-20T04:44:05;8.70;99.90
75442;DHT22;64019;48.312;14.226;2023-02-20T04:46:49;8.60;99.90
75442;DHT22;64019;48.312;14.226;2023-02-20T04:49:15;8.60;99.90
75442;DHT22;64019;48.312;14.226;2023-02-20T04:51:40;8.60;99.90
75442;DHT22;64019;48.312;14.226;2023-02-20T04:54:06;8.60;99.90
75442;DHT22;64019;48.312;14.226;2023-02-20T04:56:32;8.60;99.90
75442;DHT22;64019;48.312;14.226;2023-02-20T04:58:57;8.60;99.90
75442;DHT22;64019;48.312;14.226;2023-02-20T05:01:23;8.70;99.90
75442;DHT22;64019;48.312;14.226;2023-02-20T05:03:49;8.60;99.90
75442;DHT22;64019;48.312;14.226;2023-02-20T05:06:14;8.70;99.90
75442;DHT22;64019;48.312;14.226;2023-02-20T05:08:40;8.70;99.90
75442;DHT22;64019;48.312;14.226;2023-02-20T05:11:05;8.70;99.90
75442;DHT22;64019;48.312;14.226;2023-02-20T05:13:31;8.70;99.90
75442;DHT22;64019;48.312;14.226;2023-02-20T05:15:57;8.70;99.90
75442;DHT22;64019;48.312;14.226;2023-02-20T05:18:26;8.60;99.90
75442;DHT22;64019;48.312;14.226;2023-02-20T05:20:53;8.60;99.90
75442;DHT22;64019;48.312;14.226;2023-02-20T05:23:37;8.60;99.90
75442;DHT22;64019;48.312;14.226;2023-02-20T05:26:07;8.60;99.90
75442;DHT22;64019;48.312;14.226;2023-02-20T05:28:32;8.70;99.90
75442;DHT22;64019;48.312;14.226;2023-02-20T05:30:58;8.60;99.90
75442;DHT22;64019;48.312;14.226;2023-02-20T05:33:23;8.60;99.90
75442;DHT22;64019;48.312;14.226;2023-02-20T05:35:49;8.60;99.90
75442;DHT22;64019;48.312;14.226;2023-02-20T05:38:18;8.60;99.90
75442;DHT22;64019;48.312;14.226;2023-02-20T05:40:44;8.60;99.90
75442;DHT22;64019;48.312;14.226;2023-02-20T05:43:09;8.60;99.90
75442;DHT22;64019;48.312;14.226;2023-02-20T05:45:35;8.60;99.90
75442;DHT22;64019;48.312;14.226;2023-02-20T05:48:01;8.60;99.90
75442;DHT22;64019;48.312;14.226;2023-02-20T05:50:26;8.60;99.90
75442;DHT22;64019;48.312;14.226;2023-02-20T05:52:52;8.60;99.90
75442;DHT22;64019;48.312;14.226;2023-02-20T05:55:17;8.60;99.90
75442;DHT22;64019;48.312;14.226;2023-02-20T05:57:43;8.50;99.90
75442;DHT22;64019;48.312;14.226;2023-02-20T06:00:09;8.60;99.90
75442;DHT22;64019;48.312;14.226;2023-02-20T06:02:35;8.60;99.90
75442;DHT22;64019;48.312;14.226;2023-02-20T06:05:02;8.60;99.90
75442;DHT22;64019;48.312;14.226;2023-02-20T06:07:30;8.60;99.90
75442;DHT22;64019;48.312;14.226;2023-02-20T06:09:55;8.50;99.90
75442;DHT22;64019;48.312;14.226;2023-02-20T06:12:21;8.50;99.90
75442;DHT22;64019;48.312;14.226;2023-02-20T06:14:47;8.60;99.90
75442;DHT22;64019;48.312;14.226;2023-02-20T06:17:12;8.50;99.90
75442;DHT22;64019;48.312;14.226;2023-02-20T06:19:38;8.50;99.90
75442;DHT22;64019;48.312;14.226;2023-02-20T06:22:04;8.50;99.90
75442;DHT22;64019;48.312;14.226;2023-02-20T06:24:30;8.60;99.90
75442;DHT22;64019;48.312;14.226;2023-02-20T06:26:56;8.60;99.90
75442;DHT22;64019;48.312;14.226;2023-02-20T06:29:22;8.50;99.90
75442;DHT22;64019;48.312;14.226;2023-02-20T06:31:48;8.50;99.90
75442;DHT22;64019;48.312;14.226;2023-02-20T06:34:14;8.60;99.90
75442;DHT22;64019;48.312;14.226;2023-02-20T06:36:41;8.60;99.90
75442;DHT22;64019;48.312;14.226;2023-02-20T06:39:08;8.60;99.90
75442;DHT22;64019;48.312;14.226;2023-02-20T06:41:34;8.60;99.90
75442;DHT22;64019;48.312;14.226;2023-02-20T06:44:00;8.60;99.90
75442;DHT22;64019;48.312;14.226;2023-02-20T06:46:26;8.60;99.90
75442;DHT22;64019;48.312;14.226;2023-02-20T06:48:54;8.60;99.90
75442;DHT22;64019;48.312;14.226;2023-02-20T06:51:22;8.50;99.90
75442;DHT22;64019;48.312;14.226;2023-02-20T06:53:48;8.60;99.90
75442;DHT22;64019;48.312;14.226;2023-02-20T06:56:19;8.60;99.90
75442;DHT22;64019;48.312;14.226;2023-02-20T06:58:47;8.50;99.90
75442;DHT22;64019;48.312;14.226;2023-02-20T07:01:13;8.60;99.90
75442;DHT22;64019;48.312;14.226;2023-02-20T07:03:39;8.60;99.90
75442;DHT22;64019;48.312;14.226;2023-02-20T07:06:05;8.70;99.90
75442;DHT22;64019;48.312;14.226;2023-02-20T07:08:31;8.70;99.90
75442;DHT22;64019;48.312;14.226;2023-02-20T07:10:56;8.70;99.90
75442;DHT22;64019;48.312;14.226;2023-02-20T07:13:22;8.70;99.90
75442;DHT22;64019;48.312;14.226;2023-02-20T07:15:48;8.70;99.90
75442;DHT22;64019;48.312;14.226;2023-02-20T07:18:14;8.70;99.90
75442;DHT22;64019;48.312;14.226;2023-02-20T07:20:42;8.80;99.90
75442;DHT22;64019;48.312;14.226;2023-02-20T07:23:07;8.80;99.90
75442;DHT22;64019;48.312;14.226;2023-02-20T07:25:33;8.80;99.90
75442;DHT22;64019;48.312;14.226;2023-02-20T07:27:58;8.80;99.90
75442;DHT22;64019;48.312;14.226;2023-02-20T07:30:24;8.80;99.90
75442;DHT22;64019;48.312;14.226;2023-02-20T07:32:50;8.80;99.90
75442;DHT22;64019;48.312;14.226;2023-02-20T07:35:16;8.90;99.90
75442;DHT22;64019;48.312;14.226;2023-02-20T07:37:42;8.90;99.90
75442;DHT22;64019;48.312;14.226;2023-02-20T07:40:08;9.00;99.90
75442;DHT22;64019;48.312;14.226;2023-02-20T07:42:34;9.10;99.90
75442;DHT22;64019;48.312;14.226;2023-02-20T07:44:59;9.10;99.90
75442;DHT22;64019;48.312;14.226;2023-02-20T07:47:25;9.10;99.90
75442;DHT22;64019;48.312;14.226;2023-02-20T07:49:51;9.20;99.90
75442;DHT22;64019;48.312;14.226;2023-02-20T07:52:16;9.20;99.90
75442;DHT22;64019;48.312;14.226;2023-02-20T07:54:42;9.20;99.90
75442;DHT22;64019;48.312;14.226;2023-02-20T07:57:08;9.20;99.90
75442;DHT22;64019;48.312;14.226;2023-02-20T07:59:34;9.20;99.90
75442;DHT22;64019;48.312;14.226;2023-02-20T08:01:59;9.20;99.90
75442;DHT22;64019;48.312;14.226;2023-02-20T08:04:25;9.20;99.90
75442;DHT22;64019;48.312;14.226;2023-02-20T08:06:52;9.20;99.90
75442;DHT22;64019;48.312;14.226;2023-02-20T08:09:18;9.20;99.90
75442;DHT22;64019;48.312;14.226;2023-02-20T08:11:43;9.20;99.90
75442;DHT22;64019;48.312;14.226;2023-02-20T08:14:10;9.20;99.90
75442;DHT22;64019;48.312;14.226;2023-02-20T08:16:37;9.20;99.90
75442;DHT22;64019;48.312;14.226;2023-02-20T08:19:03;9.20;99.90
75442;DHT22;64019;48.312;14.226;2023-02-20T08:21:28;9.20;99.90
75442;DHT22;64019;48.312;14.226;2023-02-20T08:23:54;9.20;99.90
75442;DHT22;64019;48.312;14.226;2023-02-20T08:26:20;9.20;99.90
75442;DHT22;64019;48.312;14.226;2023-02-20T08:28:47;9.20;99.90
75442;DHT22;64019;48.312;14.226;2023-02-20T08:31:13;9.20;99.90
75442;DHT22;64019;48.312;14.226;2023-02-20T08:33:39;9.30;99.90
75442;DHT22;64019;48.312;14.226;2023-02-20T08:36:05;9.30;99.90
75442;DHT22;64019;48.312;14.226;2023-02-20T08:38:35;9.30;99.90
75442;DHT22;64019;48.312;14.226;2023-02-20T08:41:06;9.30;99.90
75442;DHT22;64019;48.312;14.226;2023-02-20T08:43:33;9.30;99.90
75442;DHT22;64019;48.312;14.226;2023-02-20T08:46:00;9.30;99.90
75442;DHT22;64019;48.312;14.226;2023-02-20T08:48:26;9.30;99.90
75442;DHT22;64019;48.312;14.226;2023-02-20T08:50:52;9.30;99.90
75442;DHT22;64019;48.312;14.226;2023-02-20T08:53:18;9.30;99.90
75442;DHT22;64019;48.312;14.226;2023-02-20T08:55:44;9.40;99.90
75442;DHT22;64019;48.312;14.226;2023-02-20T08:58:10;9.50;99.90
75442;DHT22;64019;48.312;14.226;2023-02-20T09:00:36;9.50;99.90
75442;DHT22;64019;48.312;14.226;2023-02-20T09:03:02;9.50;99.90
75442;DHT22;64019;48.312;14.226;2023-02-20T09:05:32;9.50;99.90
75442;DHT22;64019;48.312;14.226;2023-02-20T09:07:58;9.50;99.90
75442;DHT22;64019;48.312;14.226;2023-02-20T09:10:24;9.50;99.90
75442;DHT22;64019;48.312;14.226;2023-02-20T09:12:50;9.50;99.90
75442;DHT22;64019;48.312;14.226;2023-02-20T09:15:15;9.50;99.90
75442;DHT22;64019;48.312;14.226;2023-02-20T09:17:43;9.50;99.90
75442;DHT22;64019;48.312;14.226;2023-02-20T09:20:10;9.50;99.90
75442;DHT22;64019;48.312;14.226;2023-02-20T09:22:36;9.60;99.90
75442;DHT22;64019;48.312;14.226;2023-02-20T09:25:03;9.60;99.90
75442;DHT22;64019;48.312;14.226;2023-02-20T09:27:29;9.70;99.90
75442;DHT22;64019;48.312;14.226;2023-02-20T09:29:55;9.70;99.90
75442;DHT22;64019;48.312;14.226;2023-02-20T09:32:20;9.70;99.90
75442;DHT22;64019;48.312;14.226;2023-02-20T09:34:46;9.70;99.90
75442;DHT22;64019;48.312;14.226;2023-02-20T09:37:13;9.80;99.90
75442;DHT22;64019;48.312;14.226;2023-02-20T09:39:39;9.80;99.90
75442;DHT22;64019;48.312;14.226;2023-02-20T09:45:11;9.80;99.90
75442;DHT22;64019;48.312;14.226;2023-02-20T09:50:58;9.90;99.90
75442;DHT22;64019;48.312;14.226;2023-02-20T09:53:39;9.90;99.90
75442;DHT22;64019;48.312;14.226;2023-02-20T09:56:14;10.00;99.90
75442;DHT22;64019;48.312;14.226;2023-02-20T09:58:44;10.00;99.90
75442;DHT22;64019;48.312;14.226;2023-02-20T10:01:14;10.00;99.90
75442;DHT22;64019;48.312;14.226;2023-02-20T10:06:19;10.00;99.90
75442;DHT22;64019;48.312;14.226;2023-02-20T10:08:49;10.00;99.90
75442;DHT22;64019;48.312;14.226;2023-02-20T10:11:32;10.00;99.90
75442;DHT22;64019;48.312;14.226;2023-02-20T10:14:23;10.00;99.90
75442;DHT22;64019;48.312;14.226;2023-02-20T10:17:04;10.10;99.90
75442;DHT22;64019;48.312;14.226;2023-02-20T10:22:32;10.00;99.90
75442;DHT22;64019;48.312;14.226;2023-02-20T10:25:08;9.90;99.90
75442;DHT22;64019;48.312;14.226;2023-02-20T10:28:13;10.00;99.90
75442;DHT22;64019;48.312;14.226;2023-02-20T10:30:48;10.00;99.90
75442;DHT22;64019;48.312;14.226;2023-02-20T10:36:03;10.20;99.90
75442;DHT22;64019;48.312;14.226;2023-02-20T10:38:37;10.30;99.90
75442;DHT22;64019;48.312;14.226;2023-02-20T10:41:24;10.40;99.90
75442;DHT22;64019;48.312;14.226;2023-02-20T10:46:31;10.50;99.90
75442;DHT22;64019;48.312;14.226;2023-02-20T10:49:00;10.60;99.90
75442;DHT22;64019;48.312;14.226;2023-02-20T10:51:34;10.50;99.90
75442;DHT22;64019;48.312;14.226;2023-02-20T10:54:13;10.50;99.90
75442;DHT22;64019;48.312;14.226;2023-02-20T10:56:47;10.50;99.90
75442;DHT22;64019;48.312;14.226;2023-02-20T10:59:20;10.40;99.90
75442;DHT22;64019;48.312;14.226;2023-02-20T11:01:55;10.50;99.90
75442;DHT22;64019;48.312;14.226;2023-02-20T11:04:29;10.60;99.90
75442;DHT22;64019;48.312;14.226;2023-02-20T11:07:02;10.70;99.90
75442;DHT22;64019;48.312;14.226;2023-02-20T11:09:29;10.80;99.90
75442;DHT22;64019;48.312;14.226;2023-02-20T11:11:55;10.80;99.90
75442;DHT22;64019;48.312;14.226;2023-02-20T11:14:39;10.90;99.90
75442;DHT22;64019;48.312;14.226;2023-02-20T11:17:12;10.90;99.90
75442;DHT22;64019;48.312;14.226;2023-02-20T11:19:59;10.90;99.90
75442;DHT22;64019;48.312;14.226;2023-02-20T11:22:48;10.90;99.90
75442;DHT22;64019;48.312;14.226;2023-02-20T11:25:25;10.90;99.90
75442;DHT22;64019;48.312;14.226;2023-02-20T11:28:23;10.90;99.90
75442;DHT22;64019;48.312;14.226;2023-02-20T11:30:59;10.90;99.90
75442;DHT22;64019;48.312;14.226;2023-02-20T11:33:29;10.90;99.90
75442;DHT22;64019;48.312;14.226;2023-02-20T11:35:56;10.90;99.90
75442;DHT22;64019;48.312;14.226;2023-02-20T11:38:27;11.00;99.90
75442;DHT22;64019;48.312;14.226;2023-02-20T11:46:20;11.10;99.90
75442;DHT22;64019;48.312;14.226;2023-02-20T11:48:59;11.20;99.90
75442;DHT22;64019;48.312;14.226;2023-02-20T11:51:34;11.30;99.90
75442;DHT22;64019;48.312;14.226;2023-02-20T11:56:34;11.30;99.90
75442;DHT22;64019;48.312;14.226;2023-02-20T11:59:24;11.40;99.90
75442;DHT22;64019;48.312;14.226;2023-02-20T12:01:50;11.50;99.90
75442;DHT22;64019;48.312;14.226;2023-02-20T12:04:23;11.60;99.90
75442;DHT22;64019;48.312;14.226;2023-02-20T12:06:49;11.70;99.90
75442;DHT22;64019;48.312;14.226;2023-02-20T12:09:21;11.70;99.90
75442;DHT22;64019;48.312;14.226;2023-02-20T12:11:50;11.70;99.90
75442;DHT22;64019;48.312;14.226;2023-02-20T12:14:17;11.80;99.90
75442;DHT22;64019;48.312;14.226;2023-02-20T12:16:58;11.80;99.90
75442;DHT22;64019;48.312;14.226;2023-02-20T12:36:20;11.80;99.90
75442;DHT22;64019;48.312;14.226;2023-02-20T12:38:58;11.90;99.90
75442;DHT22;64019;48.312;14.226;2023-02-20T12:57:34;12.10;99.90
75442;DHT22;64019;48.312;14.226;2023-02-20T13:06:06;12.10;99.90
75442;DHT22;64019;48.312;14.226;2023-02-20T13:11:03;12.10;99.90
75442;DHT22;64019;48.312;14.226;2023-02-20T13:13:55;12.30;99.90
75442;DHT22;64019;48.312;14.226;2023-02-20T13:16:38;12.30;99.90
75442;DHT22;64019;48.312;14.226;2023-02-20T13:22:14;12.30;99.90
75442;DHT22;64019;48.312;14.226;2023-02-20T13:24:41;12.30;99.90
75442;DHT22;64019;48.312;14.226;2023-02-20T13:27:09;12.20;99.90
75442;DHT22;64019;48.312;14.226;2023-02-20T13:29:56;12.20;99.90
75442;DHT22;64019;48.312;14.226;2023-02-20T13:32:30;12.20;99.90
75442;DHT22;64019;48.312;14.226;2023-02-20T13:38:14;12.10;99.90
75442;DHT22;64019;48.312;14.226;2023-02-20T13:41:04;12.10;99.90
75442;DHT22;64019;48.312;14.226;2023-02-20T13:43:32;12.10;99.90
75442;DHT22;64019;48.312;14.226;2023-02-20T13:53:47;12.30;99.90
75442;DHT22;64019;48.312;14.226;2023-02-20T13:56:28;12.50;99.90
75442;DHT22;64019;48.312;14.226;2023-02-20T13:59:11;12.60;99.90
75442;DHT22;64019;48.312;14.226;2023-02-20T14:01:57;12.70;99.90
75442;DHT22;64019;48.312;14.226;2023-02-20T14:04:25;12.70;99.90
75442;DHT22;64019;48.312;14.226;2023-02-20T14:06:52;12.70;99.90
75442;DHT22;64019;48.312;14.226;2023-02-20T14:09:24;12.60;99.90
75442;DHT22;64019;48.312;14.226;2023-02-20T14:11:53;12.70;99.90
75442;DHT22;64019;48.312;14.226;2023-02-20T14:14:29;12.70;99.90
75442;DHT22;64019;48.312;14.226;2023-02-20T14:19:41;12.80;99.90
75442;DHT22;64019;48.312;14.226;2023-02-20T14:24:45;13.00;99.90
75442;DHT22;64019;48.312;14.226;2023-02-20T14:27:30;13.10;99.90
75442;DHT22;64019;48.312;14.226;2023-02-20T14:30:12;13.10;99.90
75442;DHT22;64019;48.312;14.226;2023-02-20T14:32:50;13.10;99.90
75442;DHT22;64019;48.312;14.226;2023-02-20T14:35:38;13.20;99.90
75442;DHT22;64019;48.312;14.226;2023-02-20T14:40:43;13.20;99.90
75442;DHT22;64019;48.312;14.226;2023-02-20T14:43:18;13.20;99.90
75442;DHT22;64019;48.312;14.226;2023-02-20T14:45:46;13.20;99.90
75442;DHT22;64019;48.312;14.226;2023-02-20T14:48:31;13.20;99.90
75442;DHT22;64019;48.312;14.226;2023-02-20T14:51:13;13.30;99.90
75442;DHT22;64019;48.312;14.226;2023-02-20T14:53:40;13.20;99.90
75442;DHT22;64019;48.312;14.226;2023-02-20T14:56:16;13.20;99.90
75442;DHT22;64019;48.312;14.226;2023-02-20T14:58:44;13.20;99.90
75442;DHT22;64019;48.312;14.226;2023-02-20T15:01:18;13.20;99.90
75442;DHT22;64019;48.312;14.226;2023-02-20T15:04:11;13.20;99.90
75442;DHT22;64019;48.312;14.226;2023-02-20T15:06:39;13.20;99.90
75442;DHT22;64019;48.312;14.226;2023-02-20T15:09:06;13.20;99.90
75442;DHT22;64019;48.312;14.226;2023-02-20T15:11:33;13.10;99.90
75442;DHT22;64019;48.312;14.226;2023-02-20T15:14:00;13.20;99.90
75442;DHT22;64019;48.312;14.226;2023-02-20T15:16:31;13.20;99.90
75442;DHT22;64019;48.312;14.226;2023-02-20T15:19:00;13.20;99.90
75442;DHT22;64019;48.312;14.226;2023-02-20T15:21:37;13.20;99.90
75442;DHT22;64019;48.312;14.226;2023-02-20T15:24:32;13.20;99.90
75442;DHT22;64019;48.312;14.226;2023-02-20T15:27:16;13.10;99.90
75442;DHT22;64019;48.312;14.226;2023-02-20T15:29:46;13.10;99.90
75442;DHT22;64019;48.312;14.226;2023-02-20T15:32:23;13.10;99.90
75442;DHT22;64019;48.312;14.226;2023-02-20T15:34:54;13.10;99.90
75442;DHT22;64019;48.312;14.226;2023-02-20T15:37:24;13.00;99.90
75442;DHT22;64019;48.312;14.226;2023-02-20T15:39:52;13.00;99.90
75442;DHT22;64019;48.312;14.226;2023-02-20T15:42:20;13.00;99.90
75442;DHT22;64019;48.312;14.226;2023-02-20T15:44:46;13.00;99.90
75442;DHT22;64019;48.312;14.226;2023-02-20T15:47:12;12.90;99.90
75442;DHT22;64019;48.312;14.226;2023-02-20T15:49:38;12.90;99.90
75442;DHT22;64019;48.312;14.226;2023-02-20T15:52:05;12.90;99.90
75442;DHT22;64019;48.312;14.226;2023-02-20T15:54:32;12.90;99.90
75442;DHT22;64019;48.312;14.226;2023-02-20T15:56:58;12.80;99.90
75442;DHT22;64019;48.312;14.226;2023-02-20T15:59:23;12.80;99.90
75442;DHT22;64019;48.312;14.226;2023-02-20T16:01:49;12.80;99.90
75442;DHT22;64019;48.312;14.226;2023-02-20T16:04:16;12.80;99.90
75442;DHT22;64019;48.312;14.226;2023-02-20T16:06:42;12.70;99.90
75442;DHT22;64019;48.312;14.226;2023-02-20T16:09:09;12.70;99.90
75442;DHT22;64019;48.312;14.226;2023-02-20T16:11:43;12.60;99.90
75442;DHT22;64019;48.312;14.226;2023-02-20T16:14:12;12.60;99.90
75442;DHT22;64019;48.312;14.226;2023-02-20T16:16:41;12.60;99.90
75442;DHT22;64019;48.312;14.226;2023-02-20T16:19:16;12.50;99.90
75442;DHT22;64019;48.312;14.226;2023-02-20T16:21:43;12.50;99.90
75442;DHT22;64019;48.312;14.226;2023-02-20T16:24:09;12.50;99.90
75442;DHT22;64019;48.312;14.226;2023-02-20T16:26:36;12.40;99.90
75442;DHT22;64019;48.312;14.226;2023-02-20T16:29:06;12.30;99.90
75442;DHT22;64019;48.312;14.226;2023-02-20T16:34:17;12.20;99.90
75442;DHT22;64019;48.312;14.226;2023-02-20T16:36:43;12.10;99.90
75442;DHT22;64019;48.312;14.226;2023-02-20T16:39:08;11.90;99.90
75442;DHT22;64019;48.312;14.226;2023-02-20T16:41:34;11.80;99.90
75442;DHT22;64019;48.312;14.226;2023-02-20T16:44:00;11.70;99.90
75442;DHT22;64019;48.312;14.226;2023-02-20T16:46:26;11.60;99.90
75442;DHT22;64019;48.312;14.226;2023-02-20T16:48:51;11.40;99.90
75442;DHT22;64019;48.312;14.226;2023-02-20T16:51:18;11.40;99.90
75442;DHT22;64019;48.312;14.226;2023-02-20T16:53:46;11.30;99.90
75442;DHT22;64019;48.312;14.226;2023-02-20T16:56:12;11.20;99.90
75442;DHT22;64019;48.312;14.226;2023-02-20T16:58:37;11.10;99.90
75442;DHT22;64019;48.312;14.226;2023-02-20T17:01:04;10.90;99.90
75442;DHT22;64019;48.312;14.226;2023-02-20T17:03:30;10.80;99.90
75442;DHT22;64019;48.312;14.226;2023-02-20T17:05:56;10.70;99.90
75442;DHT22;64019;48.312;14.226;2023-02-20T17:08:25;10.70;99.90
75442;DHT22;64019;48.312;14.226;2023-02-20T17:10:51;10.60;99.90
75442;DHT22;64019;48.312;14.226;2023-02-20T17:13:16;10.60;99.90
75442;DHT22;64019;48.312;14.226;2023-02-20T17:15:42;10.50;99.90
75442;DHT22;64019;48.312;14.226;2023-02-20T17:18:09;10.50;99.90
75442;DHT22;64019;48.312;14.226;2023-02-20T17:20:36;10.50;99.90
75442;DHT22;64019;48.312;14.226;2023-02-20T17:23:01;10.40;99.90
75442;DHT22;64019;48.312;14.226;2023-02-20T17:25:30;10.30;99.90
75442;DHT22;64019;48.312;14.226;2023-02-20T17:27:55;10.30;99.90
75442;DHT22;64019;48.312;14.226;2023-02-20T17:30:23;10.30;99.90
75442;DHT22;64019;48.312;14.226;2023-02-20T17:32:49;10.30;99.90
75442;DHT22;64019;48.312;14.226;2023-02-20T17:35:15;10.20;99.90
75442;DHT22;64019;48.312;14.226;2023-02-20T17:37:41;10.20;99.90